sensor_id;sensor_type;location;lat;lon;timestamp;temperature;humidity
17845;DHT22;9047;53.486;10.218;2024-03-08T00:00:38;1.70;99.90
17845;DHT22;9047;53.486;10.218;2024-03-08T00:03:06;1.70;99.90
17845;DHT22;9047;53.486;10.218;2024-03-08T00:05:38;1.70;99.90
17845;DHT22;9047;53.486;10.218;2024-03-08T00:08:05;1.70;99.90
17845;DHT22;9047;53.486;10.218;2024-03-08T00:10:35;1.80;99.90
17845;DHT22;9047;53.486;10.218;2024-03-08T00:13:06;1.70;99.90
17845;DHT22;9047;53.486;10.218;2024-03-08T00:15:33;1.70;99.90
17845;DHT22;9047;53.486;10.218;2024-03-08T00:18:04;1.80;99.90
17845;DHT22;9047;53.486;10.218;2024-03-08T00:20:30;1.70;99.90
17845;DHT22;9047;53.486;10.218;2024-03-08T00:22:59;1.70;99.90
17845;DHT22;9047;53.486;10.218;2024-03-08T00:25:27;1.70;99.90
17845;DHT22;9047;53.486;10.218;2024-03-08T00:27:55;1.60;99.90
17845;DHT22;9047;53.486;10.218;2024-03-08T00:30:28;1.60;99.90
17845;DHT22;9047;53.486;10.218;2024-03-08T00:32:56;1.60;99.90
17845;DHT22;9047;53.486;10.218;2024-03-08T00:35:25;1.60;99.90
17845;DHT22;9047;53.486;10.218;2024-03-08T00:37:52;1.60;99.90
17845;DHT22;9047;53.486;10.218;2024-03-08T00:40:23;1.50;99.90
17845;DHT22;9047;53.486;10.218;2024-03-08T00:42:52;1.50;99.90
17845;DHT22;9047;53.486;10.218;2024-03-08T00:45:30;1.50;99.90
17845;DHT22;9047;53.486;10.218;2024-03-08T00:48:08;1.50;99.90
17845;DHT22;9047;53.486;10.218;2024-03-08T00:50:36;1.50;99.90
17845;DHT22;9047;53.486;10.218;2024-03-08T00:53:04;1.40;99.90
17845;DHT22;9047;53.486;10.218;2024-03-08T00:55:35;1.40;99.90
17845;DHT22;9047;53.486;10.218;2024-03-08T00:58:02;1.40;99.90
17845;DHT22;9047;53.486;10.218;2024-03-08T01:00:29;1.40;99.90
17845;DHT22;9047;53.486;10.218;2024-03-08T01:02:56;1.40;99.90
17845;DHT22;9047;53.486;10.218;2024-03-08T01:05:24;1.40;99.90
17845;DHT22;9047;53.486;10.218;2024-03-08T01:07:51;1.40;99.90
17845;DHT22;9047;53.486;10.218;2024-03-08T01:10:19;1.30;99.90
17845;DHT22;9047;53.486;10.218;2024-03-08T01:12:49;1.30;99.90
17845;DHT22;9047;53.486;10.218;2024-03-08T01:15:16;1.20;99.90
17845;DHT22;9047;53.486;10.218;2024-03-08T01:17:44;1.10;99.90
17845;DHT22;9047;53.486;10.218;2024-03-08T01:20:12;1.20;99.90
17845;DHT22;9047;53.486;10.218;2024-03-08T01:22:40;1.10;99.90
17845;DHT22;9047;53.486;10.218;2024-03-08T01:25:08;1.10;99.90
17845;DHT22;9047;53.486;10.218;2024-03-08T01:27:35;1.10;99.90
17845;DHT22;9047;53.486;10.218;2024-03-08T01:30:05;1.10;99.90
17845;DHT22;9047;53.486;10.218;2024-03-08T01:32:34;1.00;99.90
17845;DHT22;9047;53.486;10.218;2024-03-08T01:35:01;1.10;99.90
17845;DHT22;9047;53.486;10.218;2024-03-08T01:37:29;1.00;99.90
17845;DHT22;9047;53.486;10.218;2024-03-08T01:39:56;1.00;99.90
17845;DHT22;9047;53.486;10.218;2024-03-08T01:42:23;1.00;99.90
17845;DHT22;9047;53.486;10.218;2024-03-08T01:44:51;1.00;99.90
17845;DHT22;9047;53.486;10.218;2024-03-08T01:47:20;1.00;99.90
17845;DHT22;9047;53.486;10.218;2024-03-08T01:49:50;1.00;99.90
17845;DHT22;9047;53.486;10.218;2024-03-08T01:52:18;0.90;99.90
17845;DHT22;9047;53.486;10.218;2024-03-08T01:54:48;0.90;99.90
17845;DHT22;9047;53.486;10.218;2024-03-08T01:57:17;0.90;99.90
17845;DHT22;9047;53.486;10.218;2024-03-08T01:59:44;0.90;99.90
17845;DHT22;9047;53.486;10.218;2024-03-08T02:02:11;0.80;99.90
17845;DHT22;9047;53.486;10.218;2024-03-08T02:04:44;0.70;99.90
17845;DHT22;9047;53.486;10.218;2024-03-08T02:07:12;0.80;99.90
17845;DHT22;9047;53.486;10.218;2024-03-08T02:09:41;0.70;99.90
17845;DHT22;9047;53.486;10.218;2024-03-08T02:12:10;0.70;99.90
17845;DHT22;9047;53.486;10.218;2024-03-08T02:14:37;0.70;99.90
17845;DHT22;9047;53.486;10.218;2024-03-08T02:17:05;0.70;99.90
17845;DHT22;9047;53.486;10.218;2024-03-08T02:19:33;0.70;99.90
17845;DHT22;9047;53.486;10.218;2024-03-08T02:22:03;0.70;99.90
17845;DHT22;9047;53.486;10.218;2024-03-08T02:24:32;0.70;99.90
17845;DHT22;9047;53.486;10.218;2024-03-08T02:27:00;0.60;99.90
17845;DHT22;9047;53.486;10.218;2024-03-08T02:29:28;0.60;99.90
17845;DHT22;9047;53.486;10.218;2024-03-08T02:31:57;0.60;99.90
17845;DHT22;9047;53.486;10.218;2024-03-08T02:34:24;0.60;99.90
17845;DHT22;9047;53.486;10.218;2024-03-08T02:36:52;0.50;99.90
17845;DHT22;9047;53.486;10.218;2024-03-08T02:39:22;0.50;99.90
17845;DHT22;9047;53.486;10.218;2024-03-08T02:41:49;0.50;99.90
17845;DHT22;9047;53.486;10.218;2024-03-08T02:44:17;0.50;99.90
17845;DHT22;9047;53.486;10.218;2024-03-08T02:46:47;0.50;99.90
17845;DHT22;9047;53.486;10.218;2024-03-08T02:49:14;0.50;99.90
17845;DHT22;9047;53.486;10.218;2024-03-08T02:51:41;0.50;99.90
17845;DHT22;9047;53.486;10.218;2024-03-08T02:54:09;0.50;99.90
17845;DHT22;9047;53.486;10.218;2024-03-08T02:56:40;0.50;99.90
17845;DHT22;9047;53.486;10.218;2024-03-08T02:59:07;0.40;99.90
17845;DHT22;9047;53.486;10.218;2024-03-08T03:01:34;0.40;99.90
17845;DHT22;9047;53.486;10.218;2024-03-08T03:04:04;0.40;99.90
17845;DHT22;9047;53.486;10.218;2024-03-08T03:06:31;0.40;99.90
17845;DHT22;9047;53.486;10.218;2024-03-08T03:09:01;0.30;99.90
17845;DHT22;9047;53.486;10.218;2024-03-08T03:11:31;0.30;99.90
17845;DHT22;9047;53.486;10.218;2024-03-08T03:14:00;0.30;99.90
17845;DHT22;9047;53.486;10.218;2024-03-08T03:16:27;0.30;99.90
17845;DHT22;9047;53.486;10.218;2024-03-08T03:18:54;0.30;99.90
17845;DHT22;9047;53.486;10.218;2024-03-08T03:21:23;0.30;99.90
17845;DHT22;9047;53.486;10.218;2024-03-08T03:23:51;0.30;99.90
17845;DHT22;9047;53.486;10.218;2024-03-08T03:26:20;0.30;99.90
17845;DHT22;9047;53.486;10.218;2024-03-08T03:28:47;0.30;99.90
17845;DHT22;9047;53.486;10.218;2024-03-08T03:31:16;0.30;99.90
17845;DHT22;9047;53.486;10.218;2024-03-08T03:33:44;0.40;99.90
17845;DHT22;9047;53.486;10.218;2024-03-08T03:36:12;0.40;99.90
17845;DHT22;9047;53.486;10.218;2024-03-08T03:38:43;0.40;99.90
17845;DHT22;9047;53.486;10.218;2024-03-08T03:41:11;0.40;99.90
17845;DHT22;9047;53.486;10.218;2024-03-08T03:43:42;0.40;99.90
17845;DHT22;9047;53.486;10.218;2024-03-08T03:46:10;0.40;99.90
17845;DHT22;9047;53.486;10.218;2024-03-08T03:48:42;0.30;99.90
17845;DHT22;9047;53.486;10.218;2024-03-08T03:51:10;0.30;99.90
17845;DHT22;9047;53.486;10.218;2024-03-08T03:53:39;0.30;99.90
17845;DHT22;9047;53.486;10.218;2024-03-08T03:56:07;0.30;99.90
17845;DHT22;9047;53.486;10.218;2024-03-08T03:58:34;0.20;99.90
17845;DHT22;9047;53.486;10.218;2024-03-08T04:01:04;0.20;99.90
17845;DHT22;9047;53.486;10.218;2024-03-08T04:03:30;0.20;99.90
17845;DHT22;9047;53.486;10.218;2024-03-08T04:05:59;0.20;99.90
17845;DHT22;9047;53.486;10.218;2024-03-08T04:08:27;0.10;99.90
17845;DHT22;9047;53.486;10.218;2024-03-08T04:10:54;0.10;99.90
17845;DHT22;9047;53.486;10.218;2024-03-08T04:13:22;0.10;99.90
17845;DHT22;9047;53.486;10.218;2024-03-08T04:15:49;0.00;99.90
17845;DHT22;9047;53.486;10.218;2024-03-08T04:18:22;0.00;99.90
17845;DHT22;9047;53.486;10.218;2024-03-08T04:20:49;0.00;99.90
17845;DHT22;9047;53.486;10.218;2024-03-08T04:23:17;0.00;99.90
17845;DHT22;9047;53.486;10.218;2024-03-08T04:25:44;0.00;99.90
17845;DHT22;9047;53.486;10.218;2024-03-08T04:28:13;0.00;99.90
17845;DHT22;9047;53.486;10.218;2024-03-08T04:30:40;-0.10;99.90
17845;DHT22;9047;53.486;10.218;2024-03-08T04:33:07;-0.10;99.90
17845;DHT22;9047;53.486;10.218;2024-03-08T04:35:34;-0.20;99.90
17845;DHT22;9047;53.486;10.218;2024-03-08T04:38:04;-0.10;99.90
17845;DHT22;9047;53.486;10.218;2024-03-08T04:40:33;-0.20;99.90
17845;DHT22;9047;53.486;10.218;2024-03-08T04:43:01;-0.20;99.90
17845;DHT22;9047;53.486;10.218;2024-03-08T04:45:28;-0.20;99.90
17845;DHT22;9047;53.486;10.218;2024-03-08T04:47:58;-0.20;99.90
17845;DHT22;9047;53.486;10.218;2024-03-08T04:50:25;-0.30;99.90
17845;DHT22;9047;53.486;10.218;2024-03-08T04:52:59;-0.30;99.90
17845;DHT22;9047;53.486;10.218;2024-03-08T04:55:25;-0.40;99.90
17845;DHT22;9047;53.486;10.218;2024-03-08T04:57:55;-0.40;99.90
17845;DHT22;9047;53.486;10.218;2024-03-08T05:00:22;-0.40;99.90
17845;DHT22;9047;53.486;10.218;2024-03-08T05:02:51;-0.40;99.90
17845;DHT22;9047;53.486;10.218;2024-03-08T05:05:20;-0.40;99.90
17845;DHT22;9047;53.486;10.218;2024-03-08T05:07:54;-0.40;99.90
17845;DHT22;9047;53.486;10.218;2024-03-08T05:10:27;-0.40;99.90
17845;DHT22;9047;53.486;10.218;2024-03-08T05:12:55;-0.40;99.90
17845;DHT22;9047;53.486;10.218;2024-03-08T05:15:22;-0.40;99.90
17845;DHT22;9047;53.486;10.218;2024-03-08T05:17:49;-0.40;99.90
17845;DHT22;9047;53.486;10.218;2024-03-08T05:20:16;-0.40;99.90
17845;DHT22;9047;53.486;10.218;2024-03-08T05:22:45;-0.40;99.90
17845;DHT22;9047;53.486;10.218;2024-03-08T05:25:14;-0.40;99.90
17845;DHT22;9047;53.486;10.218;2024-03-08T05:27:43;-0.40;99.90
17845;DHT22;9047;53.486;10.218;2024-03-08T05:30:19;-0.40;99.90
17845;DHT22;9047;53.486;10.218;2024-03-08T05:32:47;-0.30;99.90
17845;DHT22;9047;53.486;10.218;2024-03-08T05:35:16;-0.30;99.90
17845;DHT22;9047;53.486;10.218;2024-03-08T05:37:42;-0.30;99.90
17845;DHT22;9047;53.486;10.218;2024-03-08T05:40:10;-0.30;99.90
17845;DHT22;9047;53.486;10.218;2024-03-08T05:42:41;-0.40;99.90
17845;DHT22;9047;53.486;10.218;2024-03-08T05:45:10;-0.40;99.90
17845;DHT22;9047;53.486;10.218;2024-03-08T05:47:39;-0.40;99.90
17845;DHT22;9047;53.486;10.218;2024-03-08T05:50:07;-0.40;99.90
17845;DHT22;9047;53.486;10.218;2024-03-08T05:52:36;-0.30;99.90
17845;DHT22;9047;53.486;10.218;2024-03-08T05:55:04;-0.20;99.90
17845;DHT22;9047;53.486;10.218;2024-03-08T05:57:33;-0.20;99.90
17845;DHT22;9047;53.486;10.218;2024-03-08T05:59:59;-0.20;99.90
17845;DHT22;9047;53.486;10.218;2024-03-08T06:02:26;-0.30;99.90
17845;DHT22;9047;53.486;10.218;2024-03-08T06:04:56;-0.20;99.90
17845;DHT22;9047;53.486;10.218;2024-03-08T06:07:25;-0.10;99.90
17845;DHT22;9047;53.486;10.218;2024-03-08T06:09:52;-0.10;99.90
17845;DHT22;9047;53.486;10.218;2024-03-08T06:12:19;-0.10;99.90
17845;DHT22;9047;53.486;10.218;2024-03-08T06:14:46;0.00;99.90
17845;DHT22;9047;53.486;10.218;2024-03-08T06:17:13;0.00;99.90
17845;DHT22;9047;53.486;10.218;2024-03-08T06:19:42;0.10;99.90
17845;DHT22;9047;53.486;10.218;2024-03-08T06:22:12;0.10;99.90
17845;DHT22;9047;53.486;10.218;2024-03-08T06:24:39;0.20;99.90
17845;DHT22;9047;53.486;10.218;2024-03-08T06:27:07;0.20;99.90
17845;DHT22;9047;53.486;10.218;2024-03-08T06:29:35;0.20;99.90
17845;DHT22;9047;53.486;10.218;2024-03-08T06:32:03;0.30;99.90
17845;DHT22;9047;53.486;10.218;2024-03-08T06:34:33;0.40;99.90
17845;DHT22;9047;53.486;10.218;2024-03-08T06:37:01;0.40;99.90
17845;DHT22;9047;53.486;10.218;2024-03-08T06:39:30;0.60;99.90
17845;DHT22;9047;53.486;10.218;2024-03-08T06:41:58;0.80;99.90
17845;DHT22;9047;53.486;10.218;2024-03-08T06:44:25;1.00;99.90
17845;DHT22;9047;53.486;10.218;2024-03-08T06:46:52;1.20;99.90
17845;DHT22;9047;53.486;10.218;2024-03-08T06:49:19;1.40;99.90
17845;DHT22;9047;53.486;10.218;2024-03-08T06:51:46;1.60;99.90
17845;DHT22;9047;53.486;10.218;2024-03-08T06:54:14;1.70;99.90
17845;DHT22;9047;53.486;10.218;2024-03-08T06:56:45;1.80;99.90
17845;DHT22;9047;53.486;10.218;2024-03-08T06:59:14;2.00;99.90
17845;DHT22;9047;53.486;10.218;2024-03-08T07:01:43;2.00;99.90
17845;DHT22;9047;53.486;10.218;2024-03-08T07:04:12;2.10;99.90
17845;DHT22;9047;53.486;10.218;2024-03-08T07:06:41;2.10;99.90
17845;DHT22;9047;53.486;10.218;2024-03-08T07:09:08;2.20;99.90
17845;DHT22;9047;53.486;10.218;2024-03-08T07:11:35;2.20;99.90
17845;DHT22;9047;53.486;10.218;2024-03-08T07:14:03;2.30;99.90
17845;DHT22;9047;53.486;10.218;2024-03-08T07:16:32;2.50;99.90
17845;DHT22;9047;53.486;10.218;2024-03-08T07:18:59;2.70;99.90
17845;DHT22;9047;53.486;10.218;2024-03-08T07:21:27;2.90;99.90
17845;DHT22;9047;53.486;10.218;2024-03-08T07:23:55;3.10;99.90
17845;DHT22;9047;53.486;10.218;2024-03-08T07:26:48;3.10;99.90
17845;DHT22;9047;53.486;10.218;2024-03-08T07:29:19;3.00;99.90
17845;DHT22;9047;53.486;10.218;2024-03-08T07:31:46;2.90;99.90
17845;DHT22;9047;53.486;10.218;2024-03-08T07:34:22;2.80;99.90
17845;DHT22;9047;53.486;10.218;2024-03-08T07:36:49;2.80;99.90
17845;DHT22;9047;53.486;10.218;2024-03-08T07:39:18;2.70;99.90
17845;DHT22;9047;53.486;10.218;2024-03-08T07:41:46;2.70;99.90
17845;DHT22;9047;53.486;10.218;2024-03-08T07:44:13;2.70;99.90
17845;DHT22;9047;53.486;10.218;2024-03-08T07:46:42;2.70;99.90
17845;DHT22;9047;53.486;10.218;2024-03-08T07:49:09;2.70;99.90
17845;DHT22;9047;53.486;10.218;2024-03-08T07:51:42;2.70;99.90
17845;DHT22;9047;53.486;10.218;2024-03-08T07:54:09;2.80;99.90
17845;DHT22;9047;53.486;10.218;2024-03-08T07:56:48;2.80;99.90
17845;DHT22;9047;53.486;10.218;2024-03-08T07:59:19;2.90;99.90
17845;DHT22;9047;53.486;10.218;2024-03-08T08:01:52;3.00;99.90
17845;DHT22;9047;53.486;10.218;2024-03-08T08:04:29;3.00;99.90
17845;DHT22;9047;53.486;10.218;2024-03-08T08:06:59;3.10;99.90
17845;DHT22;9047;53.486;10.218;2024-03-08T08:09:28;3.10;99.90
17845;DHT22;9047;53.486;10.218;2024-03-08T08:12:01;3.20;99.90
17845;DHT22;9047;53.486;10.218;2024-03-08T08:14:30;3.30;99.90
17845;DHT22;9047;53.486;10.218;2024-03-08T08:17:00;3.30;99.90
17845;DHT22;9047;53.486;10.218;2024-03-08T08:19:29;3.40;99.90
17845;DHT22;9047;53.486;10.218;2024-03-08T08:21:59;3.40;99.90
17845;DHT22;9047;53.486;10.218;2024-03-08T08:24:27;3.50;99.90
17845;DHT22;9047;53.486;10.218;2024-03-08T08:26:55;3.60;99.90
17845;DHT22;9047;53.486;10.218;2024-03-08T08:29:25;3.60;99.90
17845;DHT22;9047;53.486;10.218;2024-03-08T08:31:52;3.70;99.90
17845;DHT22;9047;53.486;10.218;2024-03-08T08:34:22;3.80;99.90
17845;DHT22;9047;53.486;10.218;2024-03-08T08:36:51;3.80;99.90
17845;DHT22;9047;53.486;10.218;2024-03-08T08:39:20;3.90;99.90
17845;DHT22;9047;53.486;10.218;2024-03-08T08:41:48;4.00;99.90
17845;DHT22;9047;53.486;10.218;2024-03-08T08:44:15;4.20;99.90
17845;DHT22;9047;53.486;10.218;2024-03-08T08:46:44;4.20;99.90
17845;DHT22;9047;53.486;10.218;2024-03-08T08:49:11;4.30;99.90
17845;DHT22;9047;53.486;10.218;2024-03-08T08:51:50;4.40;99.90
17845;DHT22;9047;53.486;10.218;2024-03-08T08:54:18;4.50;99.90
17845;DHT22;9047;53.486;10.218;2024-03-08T08:56:47;4.60;99.90
17845;DHT22;9047;53.486;10.218;2024-03-08T08:59:16;4.70;99.90
17845;DHT22;9047;53.486;10.218;2024-03-08T09:01:44;4.70;99.90
17845;DHT22;9047;53.486;10.218;2024-03-08T09:04:19;4.80;99.90
17845;DHT22;9047;53.486;10.218;2024-03-08T09:06:47;4.90;99.90
17845;DHT22;9047;53.486;10.218;2024-03-08T09:09:16;5.00;99.90
17845;DHT22;9047;53.486;10.218;2024-03-08T09:11:44;5.20;99.90
17845;DHT22;9047;53.486;10.218;2024-03-08T09:14:12;5.30;99.90
17845;DHT22;9047;53.486;10.218;2024-03-08T09:16:40;5.30;99.90
17845;DHT22;9047;53.486;10.218;2024-03-08T09:19:07;5.50;99.90
17845;DHT22;9047;53.486;10.218;2024-03-08T09:21:38;5.50;99.90
17845;DHT22;9047;53.486;10.218;2024-03-08T09:24:07;5.70;99.90
17845;DHT22;9047;53.486;10.218;2024-03-08T09:26:36;5.80;99.90
17845;DHT22;9047;53.486;10.218;2024-03-08T09:29:03;5.80;99.90
17845;DHT22;9047;53.486;10.218;2024-03-08T09:31:33;5.90;99.90
17845;DHT22;9047;53.486;10.218;2024-03-08T09:34:00;6.00;99.90
17845;DHT22;9047;53.486;10.218;2024-03-08T09:36:27;6.00;99.90
17845;DHT22;9047;53.486;10.218;2024-03-08T09:38:59;6.00;99.90
17845;DHT22;9047;53.486;10.218;2024-03-08T09:41:26;6.10;99.90
17845;DHT22;9047;53.486;10.218;2024-03-08T09:43:56;6.20;99.90
17845;DHT22;9047;53.486;10.218;2024-03-08T09:46:26;6.20;99.90
17845;DHT22;9047;53.486;10.218;2024-03-08T09:48:54;6.30;99.90
17845;DHT22;9047;53.486;10.218;2024-03-08T09:51:27;6.30;99.90
17845;DHT22;9047;53.486;10.218;2024-03-08T09:53:56;6.50;99.90
17845;DHT22;9047;53.486;10.218;2024-03-08T09:56:28;6.60;99.90
17845;DHT22;9047;53.486;10.218;2024-03-08T09:58:57;6.70;99.90
17845;DHT22;9047;53.486;10.218;2024-03-08T10:01:47;6.70;99.90
17845;DHT22;9047;53.486;10.218;2024-03-08T10:04:14;6.80;99.90
17845;DHT22;9047;53.486;10.218;2024-03-08T10:06:43;6.80;99.90
17845;DHT22;9047;53.486;10.218;2024-03-08T10:09:11;6.80;99.90
17845;DHT22;9047;53.486;10.218;2024-03-08T10:11:40;6.90;99.90
17845;DHT22;9047;53.486;10.218;2024-03-08T10:14:12;6.90;99.90
17845;DHT22;9047;53.486;10.218;2024-03-08T10:16:40;7.00;99.90
17845;DHT22;9047;53.486;10.218;2024-03-08T10:19:14;7.00;99.90
17845;DHT22;9047;53.486;10.218;2024-03-08T10:21:48;7.10;99.90
17845;DHT22;9047;53.486;10.218;2024-03-08T10:24:17;7.20;99.90
17845;DHT22;9047;53.486;10.218;2024-03-08T10:26:46;7.20;99.90
17845;DHT22;9047;53.486;10.218;2024-03-08T10:29:14;7.30;99.90
17845;DHT22;9047;53.486;10.218;2024-03-08T10:31:44;7.30;99.90
17845;DHT22;9047;53.486;10.218;2024-03-08T10:34:11;7.40;99.90
17845;DHT22;9047;53.486;10.218;2024-03-08T10:36:39;7.50;99.90
17845;DHT22;9047;53.486;10.218;2024-03-08T10:39:15;7.60;99.90
17845;DHT22;9047;53.486;10.218;2024-03-08T10:41:50;7.70;99.90
17845;DHT22;9047;53.486;10.218;2024-03-08T10:44:30;7.80;99.90
17845;DHT22;9047;53.486;10.218;2024-03-08T10:47:01;7.80;99.90
17845;DHT22;9047;53.486;10.218;2024-03-08T10:49:31;7.80;99.90
17845;DHT22;9047;53.486;10.218;2024-03-08T10:52:02;7.90;99.90
17845;DHT22;9047;53.486;10.218;2024-03-08T10:54:30;8.00;99.90
17845;DHT22;9047;53.486;10.218;2024-03-08T10:56:59;8.00;99.90
17845;DHT22;9047;53.486;10.218;2024-03-08T10:59:28;8.00;99.90
17845;DHT22;9047;53.486;10.218;2024-03-08T11:01:56;8.00;99.90
17845;DHT22;9047;53.486;10.218;2024-03-08T11:04:23;8.00;99.90
17845;DHT22;9047;53.486;10.218;2024-03-08T11:06:53;8.10;99.90
17845;DHT22;9047;53.486;10.218;2024-03-08T11:09:31;8.20;99.90
17845;DHT22;9047;53.486;10.218;2024-03-08T11:12:21;8.30;99.90
17845;DHT22;9047;53.486;10.218;2024-03-08T11:15:00;8.40;99.90
17845;DHT22;9047;53.486;10.218;2024-03-08T11:17:46;8.50;99.90
17845;DHT22;9047;53.486;10.218;2024-03-08T11:20:15;8.60;99.90
17845;DHT22;9047;53.486;10.218;2024-03-08T11:22:48;8.70;99.90
17845;DHT22;9047;53.486;10.218;2024-03-08T11:25:34;8.90;99.90
17845;DHT22;9047;53.486;10.218;2024-03-08T11:28:23;8.90;99.90
17845;DHT22;9047;53.486;10.218;2024-03-08T11:31:27;8.90;99.90
17845;DHT22;9047;53.486;10.218;2024-03-08T11:33:55;8.90;99.90
17845;DHT22;9047;53.486;10.218;2024-03-08T11:36:24;8.90;99.90
17845;DHT22;9047;53.486;10.218;2024-03-08T11:38:58;9.00;99.90
17845;DHT22;9047;53.486;10.218;2024-03-08T11:41:25;9.00;99.90
17845;DHT22;9047;53.486;10.218;2024-03-08T11:44:03;9.00;99.90
17845;DHT22;9047;53.486;10.218;2024-03-08T11:46:34;9.00;99.90
17845;DHT22;9047;53.486;10.218;2024-03-08T11:49:03;8.90;99.90
17845;DHT22;9047;53.486;10.218;2024-03-08T11:51:32;9.00;99.90
17845;DHT22;9047;53.486;10.218;2024-03-08T11:54:00;9.00;99.90
17845;DHT22;9047;53.486;10.218;2024-03-08T11:56:27;9.10;99.90
17845;DHT22;9047;53.486;10.218;2024-03-08T11:58:56;9.20;99.90
17845;DHT22;9047;53.486;10.218;2024-03-08T12:01:25;9.30;99.90
17845;DHT22;9047;53.486;10.218;2024-03-08T12:03:55;9.40;99.90
17845;DHT22;9047;53.486;10.218;2024-03-08T12:06:25;9.40;99.90
17845;DHT22;9047;53.486;10.218;2024-03-08T12:08:52;9.50;99.90
17845;DHT22;9047;53.486;10.218;2024-03-08T12:11:20;9.50;99.90
17845;DHT22;9047;53.486;10.218;2024-03-08T12:13:49;9.50;99.90
17845;DHT22;9047;53.486;10.218;2024-03-08T12:16:18;9.50;99.90
17845;DHT22;9047;53.486;10.218;2024-03-08T12:18:47;9.50;99.90
17845;DHT22;9047;53.486;10.218;2024-03-08T12:21:20;9.40;99.90
17845;DHT22;9047;53.486;10.218;2024-03-08T12:24:03;9.40;99.90
17845;DHT22;9047;53.486;10.218;2024-03-08T12:26:32;9.50;99.90
17845;DHT22;9047;53.486;10.218;2024-03-08T12:29:15;9.60;99.90
17845;DHT22;9047;53.486;10.218;2024-03-08T12:31:46;9.70;99.90
17845;DHT22;9047;53.486;10.218;2024-03-08T12:34:19;9.70;99.90
17845;DHT22;9047;53.486;10.218;2024-03-08T12:36:52;9.80;99.90
17845;DHT22;9047;53.486;10.218;2024-03-08T12:39:22;9.80;99.90
17845;DHT22;9047;53.486;10.218;2024-03-08T12:41:52;9.80;99.90
17845;DHT22;9047;53.486;10.218;2024-03-08T12:44:20;9.80;99.90
17845;DHT22;9047;53.486;10.218;2024-03-08T12:46:50;9.90;99.90
17845;DHT22;9047;53.486;10.218;2024-03-08T12:49:17;9.90;99.90
17845;DHT22;9047;53.486;10.218;2024-03-08T12:51:53;9.90;99.90
17845;DHT22;9047;53.486;10.218;2024-03-08T12:54:24;9.90;99.90
17845;DHT22;9047;53.486;10.218;2024-03-08T12:56:51;9.90;99.90
17845;DHT22;9047;53.486;10.218;2024-03-08T12:59:19;10.00;99.90
17845;DHT22;9047;53.486;10.218;2024-03-08T13:01:50;10.00;99.90
17845;DHT22;9047;53.486;10.218;2024-03-08T13:04:19;10.10;99.90
17845;DHT22;9047;53.486;10.218;2024-03-08T13:06:47;10.10;99.90
17845;DHT22;9047;53.486;10.218;2024-03-08T13:09:18;10.20;99.90
17845;DHT22;9047;53.486;10.218;2024-03-08T13:11:45;10.20;99.90
17845;DHT22;9047;53.486;10.218;2024-03-08T13:14:13;10.20;99.90
17845;DHT22;9047;53.486;10.218;2024-03-08T13:16:41;10.30;99.90
17845;DHT22;9047;53.486;10.218;2024-03-08T13:19:13;10.30;99.90
17845;DHT22;9047;53.486;10.218;2024-03-08T13:21:41;10.40;99.90
17845;DHT22;9047;53.486;10.218;2024-03-08T13:24:16;10.40;99.90
17845;DHT22;9047;53.486;10.218;2024-03-08T13:26:45;10.40;99.90
17845;DHT22;9047;53.486;10.218;2024-03-08T13:29:12;10.50;99.90
17845;DHT22;9047;53.486;10.218;2024-03-08T13:31:41;10.50;99.90
17845;DHT22;9047;53.486;10.218;2024-03-08T13:34:09;10.60;99.90
17845;DHT22;9047;53.486;10.218;2024-03-08T13:36:38;10.60;99.90
17845;DHT22;9047;53.486;10.218;2024-03-08T13:39:09;10.70;99.90
17845;DHT22;9047;53.486;10.218;2024-03-08T13:41:42;10.70;99.90
17845;DHT22;9047;53.486;10.218;2024-03-08T13:44:11;10.70;99.90
17845;DHT22;9047;53.486;10.218;2024-03-08T13:46:41;10.70;99.90
17845;DHT22;9047;53.486;10.218;2024-03-08T13:49:10;10.70;99.90
17845;DHT22;9047;53.486;10.218;2024-03-08T13:51:40;10.50;99.90
17845;DHT22;9047;53.486;10.218;2024-03-08T13:54:07;10.50;99.90
17845;DHT22;9047;53.486;10.218;2024-03-08T13:56:35;10.50;99.90
17845;DHT22;9047;53.486;10.218;2024-03-08T13:59:05;10.50;99.90
17845;DHT22;9047;53.486;10.218;2024-03-08T14:01:35;10.50;99.90
17845;DHT22;9047;53.486;10.218;2024-03-08T14:04:05;10.50;99.90
17845;DHT22;9047;53.486;10.218;2024-03-08T14:06:35;10.40;99.90
17845;DHT22;9047;53.486;10.218;2024-03-08T14:09:05;10.40;99.90
17845;DHT22;9047;53.486;10.218;2024-03-08T14:11:34;10.50;99.90
17845;DHT22;9047;53.486;10.218;2024-03-08T14:14:01;10.50;99.90
17845;DHT22;9047;53.486;10.218;2024-03-08T14:16:34;10.50;99.90
17845;DHT22;9047;53.486;10.218;2024-03-08T14:19:02;10.50;99.90
17845;DHT22;9047;53.486;10.218;2024-03-08T14:21:31;10.50;99.90
17845;DHT22;9047;53.486;10.218;2024-03-08T14:23:59;10.60;99.90
17845;DHT22;9047;53.486;10.218;2024-03-08T14:26:28;10.60;99.90
17845;DHT22;9047;53.486;10.218;2024-03-08T14:28:57;10.50;99.90
17845;DHT22;9047;53.486;10.218;2024-03-08T14:31:25;10.50;99.90
17845;DHT22;9047;53.486;10.218;2024-03-08T14:33:55;10.50;99.90
17845;DHT22;9047;53.486;10.218;2024-03-08T14:36:27;10.50;99.90
17845;DHT22;9047;53.486;10.218;2024-03-08T14:38:55;10.50;99.90
17845;DHT22;9047;53.486;10.218;2024-03-08T14:41:25;10.50;99.90
17845;DHT22;9047;53.486;10.218;2024-03-08T14:43:53;10.50;99.90
17845;DHT22;9047;53.486;10.218;2024-03-08T14:46:21;10.50;99.90
17845;DHT22;9047;53.486;10.218;2024-03-08T14:48:52;10.50;99.90
17845;DHT22;9047;53.486;10.218;2024-03-08T14:51:23;10.50;99.90
17845;DHT22;9047;53.486;10.218;2024-03-08T14:53:52;10.50;99.90
17845;DHT22;9047;53.486;10.218;2024-03-08T14:56:20;10.50;99.90
17845;DHT22;9047;53.486;10.218;2024-03-08T14:58:48;10.50;99.90
17845;DHT22;9047;53.486;10.218;2024-03-08T15:01:17;10.50;99.90
17845;DHT22;9047;53.486;10.218;2024-03-08T15:03:47;10.40;99.90
17845;DHT22;9047;53.486;10.218;2024-03-08T15:06:15;10.40;99.60
17845;DHT22;9047;53.486;10.218;2024-03-08T15:08:48;10.40;99.50
17845;DHT22;9047;53.486;10.218;2024-03-08T15:11:17;10.30;99.50
17845;DHT22;9047;53.486;10.218;2024-03-08T15:13:51;10.30;99.80
17845;DHT22;9047;53.486;10.218;2024-03-08T15:16:19;10.30;99.40
17845;DHT22;9047;53.486;10.218;2024-03-08T15:18:49;10.30;99.70
17845;DHT22;9047;53.486;10.218;2024-03-08T15:21:19;10.20;99.80
17845;DHT22;9047;53.486;10.218;2024-03-08T15:23:56;10.20;99.70
17845;DHT22;9047;53.486;10.218;2024-03-08T15:26:23;10.20;99.80
17845;DHT22;9047;53.486;10.218;2024-03-08T15:28:51;10.10;99.80
17845;DHT22;9047;53.486;10.218;2024-03-08T15:31:19;10.10;99.70
17845;DHT22;9047;53.486;10.218;2024-03-08T15:33:50;10.00;99.60
17845;DHT22;9047;53.486;10.218;2024-03-08T15:36:26;10.00;99.80
17845;DHT22;9047;53.486;10.218;2024-03-08T15:38:57;9.90;99.90
17845;DHT22;9047;53.486;10.218;2024-03-08T15:41:26;9.90;99.90
17845;DHT22;9047;53.486;10.218;2024-03-08T15:43:55;9.90;99.90
17845;DHT22;9047;53.486;10.218;2024-03-08T15:46:31;9.80;99.90
17845;DHT22;9047;53.486;10.218;2024-03-08T15:49:02;9.80;99.90
17845;DHT22;9047;53.486;10.218;2024-03-08T15:51:32;9.80;99.90
17845;DHT22;9047;53.486;10.218;2024-03-08T15:54:15;9.70;99.90
17845;DHT22;9047;53.486;10.218;2024-03-08T15:56:48;9.70;99.90